หน้าหลัก
METAR-TAF:

METAR-TAF

ท่าอากาศยาน :

Mendoza, อาร์เจนตินา

ละติจูด: 32-50S, ลองจิจูด: 068-47W, ความสูง: 705 ม.

การสังเกตสภาพอากาศปัจจุบัน

รายงานได้ทำขึ้นเมื่อ 1 ชั่วโมงและ 6 นาทีที่แล้ว ณ เวลา 18:00 UTC
ลม 3 นอตจากตะวันตกเฉียงเหนือ
อุณหภูมิ 10°C
ความชื้น 40%
ความกดอากาศ 1018 hPa
ทัศนวิสัย 10 กม. หรือมากกว่า
ไม่มีเมฆต่ำกว่า 1,500 ม. และไม่มีเมฆคิวมูโลนิมบัส

METAR: SAME 201800Z 32003KT CAVOK 10/M03 Q1018

เวลา: 16:06 (19:06 UTC)

การพยากรณ์

รายงานได้ทำขึ้นเมื่อ 2 ชั่วโมงและ 6 นาทีที่แล้ว ณ เวลา 17:00 UTC
การพยากรณ์มีผลตั้งแต่วันที่ 20 ณ เวลา 18 UTC จนถึงวันที่ 21 ณ เวลา 18 UTC
ลม 5 นอตจากเหนือ/ตะวันออกเฉียงเหนือ
ทัศนวิสัย 10 กม. หรือมากกว่า
ไม่มีเมฆต่ำกว่า 1,500 ม. และไม่มีเมฆคิวมูโลนิมบัส
กำลังกลายเป็น
ตั้งแต่วันที่ 21 ณ เวลา 02 UTC จนถึงวันที่ 21 ณ เวลา 04 UTC
ลม 3 นอตจากทิศทางซึ่งแปรผันได้
กำลังกลายเป็น
ตั้งแต่วันที่ 21 ณ เวลา 08 UTC จนถึงวันที่ 21 ณ เวลา 10 UTC
ลม 5 นอตจากใต้

TAF: SAME 201700Z 2018/2118 02005KT CAVOK TX13/2118Z TN01/2111Z BECMG 2102/2104 VRB03KT BECMG 2108/2110 18005KT

สังเกตการณ์สภาพอากาศและพยากรณ์อากาศของสนามบินมากกว่า 4000 แห่ง (รายงาน METAR และ TAF).

สถานีที่ดูได้จะแสดงไว้ด้วยจุดสีเหลืองและสีแดงบนแผนที่.

เลื่อนเมาส์ไปเหนือจุดเพื่อดูชื่อสถานี.

แล้วคลิกเพื่อดูสังเกตการณ์และการพยากรณ์สภาพอากาศ.

ในการเปลี่ยนแผนที่: คลิกที่ปุ่มสีเขียวที่มีกากบาทสีดำเพื่อซูมเข้า; ที่ปุ่มสีเขียวที่มีขีดเพื่อซูมออก; หรือที่ลูกศรสีเขียวเพื่อไปยังแผนที่ที่อยู่ติดกัน.


METAR-TAF: